»·PEaware :: SWA707 KGEG-KBOI

SWA707 :: KGEG-KBOI

FLIGHT INFORMATION

Flight Status: Arrived
Operator:
Southwest Airlines
More flights by this operator :: More flights under this callsign
Pilot: Paul A. (20189)
Aircraft: BOEING 737-700
(B737)
More flights by this aircraft type
Origin: KGEG Spokane Intl
United States
Destination: KBOI Boise Air Terminal/Gowen
United States
More flights between these airports :: More routes between these airports
Route: +GEG SUMOQ BEWTE3
File this flight plan on PilotEdge
Remarks:
Altitude:
(Current/Filed)
39,000ft
Speed:
(Current/Filed)
455kts
Departed: 22-Oct-18 05:27 PM
Arrived: 22-Oct-18 06:13 PM
Distance/Time
Traveled:
249nm/0:45
Distance/Time
To Go:
Arrived

Flight Plot

Page will automatically refresh every two minutes.

Flight plan parsing failed; only flown route is shown


Map Options




Map Legend


Flown Route
Filed Route
Departure Airport
Arrival Airport
Navaid (VOR, NDB)
Fix

Horizontal Profiles

Position Reports

Time Latitude Longitude Heading Altitude Ground
Speed
22-Oct-18 17:04 47.624990 -117.533908 335 2357ft 0kts
22-Oct-18 17:05 47.624990 -117.533908 335 2357ft 0kts
22-Oct-18 17:06 47.624990 -117.533908 335 2357ft 0kts
22-Oct-18 17:07 47.624990 -117.533908 335 2357ft 0kts
22-Oct-18 17:08 47.624990 -117.533908 335 2357ft 0kts
22-Oct-18 17:09 47.624990 -117.533908 335 2358ft 0kts
22-Oct-18 17:10 47.624990 -117.533908 335 2358ft 0kts
22-Oct-18 17:11 47.624990 -117.533908 335 2358ft 0kts
22-Oct-18 17:12 47.624990 -117.533908 335 2358ft 0kts
22-Oct-18 17:13 47.624990 -117.533908 335 2358ft 0kts
22-Oct-18 17:14 47.624990 -117.533908 335 2358ft 0kts
22-Oct-18 17:15 47.624990 -117.533908 335 2358ft 0kts
22-Oct-18 17:16 47.624990 -117.533908 335 2358ft 0kts
22-Oct-18 17:17 47.624472 -117.533698 11 2358ft 0kts
22-Oct-18 17:18 47.624473 -117.533697 11 2358ft 0kts
22-Oct-18 17:19 47.624475 -117.533697 11 2358ft 0kts
22-Oct-18 17:20 47.624477 -117.533696 11 2358ft 0kts
22-Oct-18 17:21 47.624479 -117.533696 11 2358ft 0kts
22-Oct-18 17:22 47.624481 -117.533695 11 2358ft 0kts
22-Oct-18 17:23 47.624483 -117.533694 11 2358ft 0kts
22-Oct-18 17:24 47.624390 -117.532598 224 2358ft 14kts
22-Oct-18 17:25 47.620850 -117.537979 227 2358ft 21kts
22-Oct-18 17:26 47.616343 -117.544707 224 2358ft 28kts
22-Oct-18 17:27 47.614574 -117.546160 101 2358ft 10kts
22-Oct-18 17:28 47.614507 -117.545664 102 2358ft 0kts
22-Oct-18 17:29 47.620491 -117.534536 45 2359ft 157kts
22-Oct-18 17:30 47.659250 -117.482192 41 6694ft 193kts
22-Oct-18 17:31 47.674267 -117.396353 122 9089ft 266kts
22-Oct-18 17:32 47.598820 -117.354299 169 11815ft 335kts
22-Oct-18 17:33 47.503413 -117.328209 169 15269ft 355kts
22-Oct-18 17:34 47.402912 -117.301062 169 19377ft 377kts
22-Oct-18 17:35 47.296881 -117.273684 172 22845ft 397kts
22-Oct-18 17:36 47.184219 -117.258892 174 25774ft 415kts
22-Oct-18 17:37 47.066972 -117.240592 172 28249ft 430kts
22-Oct-18 17:38 46.947563 -117.208574 169 30574ft 437kts
22-Oct-18 17:39 46.827967 -117.175510 169 31057ft 435kts
22-Oct-18 17:40 46.709393 -117.142828 169 31059ft 433kts
22-Oct-18 17:41 46.590635 -117.110017 169 31049ft 435kts
22-Oct-18 17:42 46.471666 -117.077311 169 31026ft 434kts
22-Oct-18 17:43 46.352910 -117.044855 169 31010ft 435kts
22-Oct-18 17:44 46.233851 -117.012474 169 31012ft 435kts
22-Oct-18 17:45 46.114724 -116.980221 169 31015ft 435kts
22-Oct-18 17:46 45.995624 -116.948109 169 31022ft 440kts
22-Oct-18 17:47 45.875688 -116.915927 168 31031ft 434kts
22-Oct-18 17:48 45.757067 -116.884234 168 31037ft 434kts
22-Oct-18 17:49 45.637921 -116.852538 168 31042ft 440kts
22-Oct-18 17:50 45.516729 -116.820437 168 31047ft 446kts
22-Oct-18 17:51 45.396102 -116.788621 168 31057ft 441kts
22-Oct-18 17:52 45.276030 -116.757088 168 31062ft 441kts
22-Oct-18 17:53 45.155432 -116.725458 168 31069ft 438kts
22-Oct-18 17:54 45.031864 -116.693333 168 30200ft 462kts
22-Oct-18 17:55 44.910671 -116.661938 168 29199ft 438kts
22-Oct-18 17:56 44.789943 -116.630659 168 28196ft 439kts
22-Oct-18 17:57 44.671235 -116.600003 168 26402ft 428kts
22-Oct-18 17:58 44.556533 -116.570584 168 23399ft 408kts
22-Oct-18 17:59 44.447386 -116.542632 168 20532ft 390kts
22-Oct-18 18:00 44.343024 -116.516070 168 17775ft 373kts
22-Oct-18 18:01 44.242891 -116.490690 168 15091ft 358kts
22-Oct-18 18:02 44.146972 -116.466400 167 12456ft 344kts
22-Oct-18 18:03 44.056979 -116.443727 167 11021ft 299kts
22-Oct-18 18:04 43.980031 -116.423988 167 10135ft 273kts
22-Oct-18 18:05 43.905144 -116.404213 168 8679ft 266kts
22-Oct-18 18:06 43.832384 -116.385018 169 7244ft 263kts
22-Oct-18 18:07 43.765500 -116.378142 196 6544ft 221kts
22-Oct-18 18:08 43.715352 -116.402557 200 5991ft 187kts
22-Oct-18 18:09 43.666501 -116.426629 200 5453ft 186kts
22-Oct-18 18:10 43.625558 -116.409715 114 4898ft 178kts
22-Oct-18 18:11 43.610432 -116.351164 115 4108ft 154kts
22-Oct-18 18:12 43.591039 -116.298330 112 3545ft 147kts
22-Oct-18 18:13 43.575053 -116.250682 113 3029ft 141kts
22-Oct-18 18:14 43.564260 -116.219461 114 2842ft 51kts
22-Oct-18 18:15 43.565535 -116.217276 297 2842ft 24kts
22-Oct-18 18:16 43.566793 -116.219669 20 2842ft 0kts

Navigation Log

Ident Type
Flight plan parsing failed, navigation log unavailable